createdAt,value
2019-04-10T00:01:06.437Z,28.73
2019-04-10T00:03:22.276Z,25.55
2019-04-10T00:05:15.887Z,28.40
2019-04-10T00:07:21.142Z,27.80
2019-04-10T00:09:27.356Z,29.27
2019-04-10T00:11:32.333Z,25.12
2019-04-10T00:13:36.501Z,30.85
2019-04-10T00:15:40.370Z,27.17
2019-04-10T00:17:45.060Z,25.77
2019-04-10T00:19:49.067Z,27.35
2019-04-10T00:21:53.652Z,27.58
2019-04-10T00:23:57.722Z,25.12
2019-04-10T00:26:01.580Z,23.90
2019-04-10T00:28:05.439Z,25.30
2019-04-10T00:30:09.584Z,25.57
2019-04-10T00:32:14.022Z,27.75
2019-04-10T00:34:18.071Z,23.60
2019-04-10T00:36:21.940Z,20.97
2019-04-10T00:38:26.111Z,20.88
2019-04-10T00:40:31.065Z,19.07
2019-04-10T00:42:35.719Z,21.90
2019-04-10T00:44:39.705Z,21.85
2019-04-10T00:46:43.715Z,22.10
2019-04-10T00:48:48.173Z,21.70
2019-04-10T00:50:52.938Z,19.10
2019-04-10T00:52:56.978Z,19.73
2019-04-10T00:55:01.529Z,16.67
2019-04-10T00:57:05.473Z,20.25
2019-04-10T00:59:10.240Z,18.17
2019-04-10T01:01:27.661Z,18.73
2019-04-10T01:03:43.948Z,20.35
2019-04-10T01:05:49.190Z,15.53
2019-04-10T01:07:53.940Z,15.90
2019-04-10T01:09:57.835Z,16.12
2019-04-10T01:12:01.691Z,16.32
2019-04-10T01:14:05.592Z,16.37
2019-04-10T01:16:09.468Z,14.83
2019-04-10T01:18:13.347Z,19.25
2019-04-10T01:20:17.604Z,13.65
2019-04-10T01:22:21.560Z,17.00
2019-04-10T01:24:25.793Z,15.55
2019-04-10T01:26:29.825Z,13.55
2019-04-10T01:28:33.671Z,13.60
2019-04-10T01:30:38.151Z,17.80
2019-04-10T01:32:42.037Z,12.98
2019-04-10T01:34:45.913Z,15.50
2019-04-10T01:36:49.799Z,14.63
2019-04-10T01:38:53.808Z,15.50
2019-04-10T01:40:57.757Z,12.73
2019-04-10T01:43:08.158Z,18.48
2019-04-10T01:45:07.443Z,12.07
2019-04-10T01:47:11.304Z,15.70
2019-04-10T01:49:15.676Z,11.63
2019-04-10T01:51:19.654Z,13.32
2019-04-10T01:53:23.812Z,14.80
2019-04-10T01:55:30.993Z,12.60
2019-04-10T01:57:33.238Z,11.28
2019-04-10T01:59:38.678Z,11.12
2019-04-10T02:01:44.944Z,10.65
2019-04-10T02:03:49.926Z,9.85
2019-04-10T02:05:54.731Z,11.00
2019-04-10T02:08:07.298Z,10.72
2019-04-10T02:10:06.459Z,10.38
2019-04-10T02:12:10.400Z,11.73
2019-04-10T02:14:14.263Z,13.10
2019-04-10T02:16:18.832Z,10.63
2019-04-10T02:18:23.500Z,10.78
2019-04-10T02:20:27.443Z,9.35
2019-04-10T02:22:31.279Z,9.78
2019-04-10T02:24:35.535Z,9.40
2019-04-10T02:26:39.352Z,8.93
2019-04-10T02:28:43.252Z,11.48
2019-04-10T02:30:47.909Z,12.37
2019-04-10T02:32:52.932Z,8.95
2019-04-10T02:34:58.162Z,10.50
2019-04-10T02:37:02.593Z,10.75
2019-04-10T02:39:20.520Z,8.95
2019-04-10T02:41:14.974Z,8.80
2019-04-10T02:43:18.981Z,8.50
2019-04-10T02:45:24.177Z,8.20
2019-04-10T02:47:28.385Z,9.10
2019-04-10T02:49:32.309Z,10.78
2019-04-10T02:51:36.364Z,8.30
2019-04-10T02:53:40.349Z,7.47
2019-04-10T02:55:44.152Z,8.73
2019-04-10T02:57:49.881Z,8.98
2019-04-10T02:59:55.632Z,11.25
2019-04-10T03:02:00.285Z,10.80
2019-04-10T03:04:05.526Z,6.97
2019-04-10T03:06:11.316Z,10.88
2019-04-10T03:08:15.890Z,7.47
2019-04-10T03:10:29.847Z,7.80
2019-04-10T03:12:28.234Z,9.85
2019-04-10T03:14:32.651Z,7.65
2019-04-10T03:16:37.597Z,7.05
2019-04-10T03:18:41.591Z,10.18
2019-04-10T03:20:46.704Z,8.13
2019-04-10T03:22:51.387Z,7.58
2019-04-10T03:24:55.338Z,6.97
2019-04-10T03:26:59.255Z,8.90
2019-04-10T03:29:03.290Z,9.08
2019-04-10T03:31:08.014Z,10.38
2019-04-10T03:33:18.984Z,7.62
2019-04-10T03:35:23.629Z,9.88
2019-04-10T03:37:28.525Z,9.25
2019-04-10T03:39:34.804Z,7.30
2019-04-10T03:41:37.950Z,8.03
2019-04-10T03:43:42.048Z,10.40
2019-04-10T03:45:46.700Z,8.10
2019-04-10T03:47:51.503Z,5.83
2019-04-10T03:49:55.589Z,7.08
2019-04-10T03:51:59.455Z,9.78
2019-04-10T03:54:03.257Z,7.15
2019-04-10T03:56:07.566Z,7.05
2019-04-10T03:58:11.532Z,10.60
2019-04-10T04:00:16.237Z,7.40
2019-04-10T04:02:20.310Z,8.48
2019-04-10T04:04:24.375Z,9.18
2019-04-10T04:06:28.243Z,8.65
2019-04-10T04:08:32.127Z,8.65
2019-04-10T04:10:37.052Z,8.90
2019-04-10T04:12:40.931Z,9.30
2019-04-10T04:14:44.854Z,9.23
2019-04-10T04:16:49.148Z,10.40
2019-04-10T04:18:53.362Z,8.50
2019-04-10T04:20:57.306Z,13.55
2019-04-10T04:23:01.442Z,9.55
2019-04-10T04:25:06.858Z,10.38
2019-04-10T04:27:11.127Z,7.83
2019-04-10T04:29:15.107Z,10.65
2019-04-10T04:31:19.131Z,13.75
2019-04-10T04:33:23.247Z,12.63
2019-04-10T04:35:27.760Z,9.48
2019-04-10T04:37:32.306Z,10.35
2019-04-10T04:39:37.251Z,8.23
2019-04-10T04:41:42.141Z,13.15
2019-04-10T04:43:47.607Z,8.75
2019-04-10T04:45:53.012Z,8.93
2019-04-10T04:47:57.625Z,8.73
2019-04-10T04:50:01.608Z,10.53
2019-04-10T04:52:05.599Z,8.33
2019-04-10T04:54:09.456Z,11.15
2019-04-10T04:56:13.311Z,11.35
2019-04-10T04:58:18.072Z,10.23
2019-04-10T05:00:22.020Z,10.00
2019-04-10T05:02:26.238Z,9.10
2019-04-10T05:04:32.329Z,10.10
2019-04-10T05:06:35.679Z,14.80
2019-04-10T05:08:39.950Z,12.70
2019-04-10T05:10:43.856Z,12.03
2019-04-10T05:12:47.774Z,16.17
2019-04-10T05:14:51.767Z,10.63
2019-04-10T05:16:55.635Z,11.88
2019-04-10T05:18:59.603Z,15.13
2019-04-10T05:21:03.522Z,12.25
2019-04-10T05:23:08.186Z,13.40
2019-04-10T05:25:13.260Z,11.65
2019-04-10T05:27:18.097Z,10.98
2019-04-10T05:29:22.030Z,15.08
2019-04-10T05:31:25.886Z,12.53
2019-04-10T05:33:30.915Z,13.28
2019-04-10T05:35:35.069Z,12.73
2019-04-10T05:37:39.982Z,15.05
2019-04-10T05:39:49.148Z,12.25
2019-04-10T05:41:50.372Z,12.58
2019-04-10T05:43:55.053Z,15.18
2019-04-10T05:45:59.293Z,17.15
2019-04-10T05:48:03.336Z,13.58
2019-04-10T05:50:07.683Z,17.20
2019-04-10T05:52:12.589Z,15.25
2019-04-10T05:54:17.132Z,14.38
2019-04-10T05:56:22.401Z,12.25
2019-04-10T05:58:26.334Z,14.10
2019-04-10T06:00:30.186Z,14.80
2019-04-10T06:02:36.626Z,18.95
2019-04-10T06:04:41.218Z,15.75
2019-04-10T06:06:45.055Z,13.88
2019-04-10T06:08:49.127Z,13.32
2019-04-10T06:10:53.044Z,14.13
2019-04-10T06:12:57.088Z,16.52
2019-04-10T06:15:02.332Z,17.15
2019-04-10T06:17:08.453Z,15.88
2019-04-10T06:19:12.046Z,16.52
2019-04-10T06:21:15.944Z,15.80
2019-04-10T06:23:19.834Z,16.30
2019-04-10T06:25:24.772Z,19.12
2019-04-10T06:27:28.983Z,13.43
2019-04-10T06:29:32.908Z,14.85
2019-04-10T06:31:36.859Z,14.68
2019-04-10T06:33:40.792Z,15.43
2019-04-10T06:35:44.787Z,14.53
2019-04-10T06:37:48.687Z,15.13
2019-04-10T06:40:03.708Z,13.68
2019-04-10T06:41:58.229Z,15.45
2019-04-10T06:44:02.081Z,17.30
2019-04-10T06:46:06.412Z,14.23
2019-04-10T06:48:12.972Z,14.10
2019-04-10T06:50:17.027Z,18.40
2019-04-10T06:52:20.984Z,13.20
2019-04-10T06:54:24.911Z,17.45
2019-04-10T06:56:29.216Z,13.22
2019-04-10T06:58:36.670Z,15.93
2019-04-10T07:00:41.037Z,19.75
2019-04-10T07:02:46.225Z,17.55
2019-04-10T07:04:55.952Z,15.20
2019-04-10T07:07:04.820Z,15.85
2019-04-10T07:09:07.478Z,17.35
2019-04-10T07:11:13.118Z,16.97
2019-04-10T07:13:17.609Z,17.70
2019-04-10T07:15:23.871Z,17.98
2019-04-10T07:17:29.924Z,16.27
2019-04-10T07:19:34.445Z,22.02
2019-04-10T07:21:38.666Z,14.47
2019-04-10T07:23:42.817Z,18.32
2019-04-10T07:25:49.926Z,18.60
2019-04-10T07:27:54.355Z,19.92
2019-04-10T07:29:59.803Z,16.48
2019-04-10T07:32:08.630Z,18.82
2019-04-10T07:34:10.967Z,21.42
2019-04-10T07:36:16.060Z,20.35
2019-04-10T07:38:21.333Z,20.17
2019-04-10T07:40:25.658Z,17.73
2019-04-10T07:42:36.546Z,19.00
2019-04-10T07:44:35.264Z,21.87
2019-04-10T07:46:40.113Z,17.37
2019-04-10T07:48:44.141Z,18.57
2019-04-10T07:50:48.546Z,21.82
2019-04-10T07:52:54.073Z,17.25
2019-04-10T07:54:58.730Z,15.40
2019-04-10T07:57:02.894Z,13.10
2019-04-10T07:59:10.878Z,14.23
2019-04-10T08:01:16.104Z,15.00
2019-04-10T08:03:21.373Z,18.77
2019-04-10T08:05:25.293Z,15.05
2019-04-10T08:07:31.758Z,17.00
2019-04-10T08:09:43.087Z,16.30
2019-04-10T08:11:47.523Z,12.80
2019-04-10T08:13:53.291Z,16.32
2019-04-10T08:15:58.475Z,19.73
2019-04-10T08:18:02.622Z,15.38
2019-04-10T08:20:07.801Z,15.93
2019-04-10T08:22:12.342Z,14.33
2019-04-10T08:24:16.224Z,18.75
2019-04-10T08:26:21.276Z,16.50
2019-04-10T08:28:27.947Z,19.00
2019-04-10T08:30:32.121Z,19.30
2019-04-10T08:32:47.385Z,17.90
2019-04-10T08:34:42.142Z,18.67
2019-04-10T08:36:46.040Z,16.48
2019-04-10T08:38:50.811Z,19.00
2019-04-10T08:41:02.839Z,17.20
2019-04-10T08:43:06.786Z,19.07
2019-04-10T08:45:11.513Z,18.30
2019-04-10T08:47:15.393Z,17.35
2019-04-10T08:49:21.198Z,16.45
2019-04-10T08:51:25.661Z,17.12
2019-04-10T08:53:30.637Z,18.52
2019-04-10T08:55:37.804Z,19.42
2019-04-10T08:57:41.862Z,18.10
2019-04-10T08:59:46.895Z,17.67
2019-04-10T09:01:51.203Z,17.10
2019-04-10T09:03:55.334Z,17.98
2019-04-10T09:06:00.964Z,17.07
2019-04-10T09:08:05.017Z,19.87
2019-04-10T09:10:10.138Z,16.20
2019-04-10T09:12:14.212Z,15.58
2019-04-10T09:14:19.064Z,18.40
2019-04-10T09:16:23.020Z,24.87
2019-04-10T09:18:27.387Z,20.60
2019-04-10T09:20:31.312Z,20.30
2019-04-10T09:22:56.288Z,18.77
2019-04-10T09:24:40.762Z,16.42
2019-04-10T09:26:44.646Z,20.35
2019-04-10T09:28:48.780Z,19.50
2019-04-10T09:30:55.339Z,14.75
2019-04-10T09:33:00.720Z,17.57
2019-04-10T09:35:06.624Z,14.53
2019-04-10T09:37:10.631Z,15.35
2019-04-10T09:39:17.136Z,20.23
2019-04-10T09:41:21.609Z,15.93
2019-04-10T09:43:25.561Z,14.78
2019-04-10T09:45:30.538Z,17.35
2019-04-10T09:47:34.838Z,13.95
2019-04-10T09:49:43.177Z,15.85
2019-04-10T09:51:44.329Z,15.80
2019-04-10T09:53:48.902Z,16.85
2019-04-10T09:55:52.939Z,13.68
2019-04-10T09:57:57.466Z,18.87
2019-04-10T10:00:01.729Z,16.70
2019-04-10T10:02:05.684Z,22.52
2019-04-10T10:04:09.534Z,17.55
2019-04-10T10:06:24.304Z,14.75
2019-04-10T10:08:19.046Z,15.78
2019-04-10T10:10:23.109Z,16.93
2019-04-10T10:12:27.971Z,15.58
2019-04-10T10:14:33.361Z,19.52
2019-04-10T10:16:37.335Z,19.80
2019-04-10T10:18:41.567Z,15.60
2019-04-10T10:20:46.002Z,20.88
2019-04-10T10:22:49.962Z,17.67
2019-04-10T10:24:55.253Z,18.82
2019-04-10T10:26:59.817Z,21.10
2019-04-10T10:29:04.807Z,17.50
2019-04-10T10:31:09.279Z,19.40
2019-04-10T10:33:13.551Z,19.67
2019-04-10T10:35:18.967Z,20.27
2019-04-10T10:37:22.830Z,15.88
2019-04-10T10:39:26.693Z,18.30
2019-04-10T10:41:31.882Z,19.27
2019-04-10T10:43:36.290Z,17.75
2019-04-10T10:45:40.204Z,16.50
2019-04-10T10:47:44.263Z,17.27
2019-04-10T10:49:48.747Z,20.08
2019-04-10T10:51:53.328Z,19.95
2019-04-10T10:54:00.091Z,18.90
2019-04-10T10:56:07.166Z,18.27
2019-04-10T10:58:11.311Z,17.92
2019-04-10T11:00:16.980Z,17.42
2019-04-10T11:02:21.262Z,24.67
2019-04-10T11:04:25.275Z,20.08
2019-04-10T11:06:29.158Z,18.50
2019-04-10T11:08:33.269Z,20.65
2019-04-10T11:10:37.241Z,20.45
2019-04-10T11:12:42.310Z,19.00
2019-04-10T11:14:48.068Z,16.82
2019-04-10T11:16:52.063Z,19.10
2019-04-10T11:18:57.525Z,19.52
2019-04-10T11:21:06.173Z,17.40
2019-04-10T11:23:07.396Z,18.02
2019-04-10T11:25:12.236Z,17.98
2019-04-10T11:27:16.534Z,17.75
2019-04-10T11:29:21.925Z,19.67
2019-04-10T11:31:25.922Z,18.92
2019-04-10T11:33:30.698Z,20.65
2019-04-10T11:35:35.332Z,18.35
2019-04-10T11:37:44.537Z,17.48
2019-04-10T11:39:45.834Z,20.88
2019-04-10T11:41:50.487Z,22.25
2019-04-10T11:43:56.084Z,16.52
2019-04-10T11:46:02.554Z,17.92
2019-04-10T11:48:06.142Z,16.45
2019-04-10T11:50:13.956Z,17.70
2019-04-10T11:52:17.268Z,22.25
2019-04-10T11:54:25.030Z,18.62
2019-04-10T11:56:29.137Z,20.65
2019-04-10T11:58:33.421Z,18.25
2019-04-10T12:00:50.587Z,18.37
2019-04-10T12:02:50.385Z,17.75
2019-04-10T12:04:57.672Z,18.27
2019-04-10T12:07:01.492Z,23.55
2019-04-10T12:09:47.853Z,18.00
2019-04-10T12:11:17.065Z,17.40
2019-04-10T12:13:19.849Z,17.57
2019-04-10T12:15:23.927Z,19.62
2019-04-10T12:17:27.923Z,16.67
2019-04-10T12:19:31.817Z,23.15
2019-04-10T12:21:35.834Z,24.57
2019-04-10T12:23:39.766Z,21.37
2019-04-10T12:25:43.691Z,20.70
2019-04-10T12:27:47.573Z,23.75
2019-04-10T12:29:51.463Z,21.40
2019-04-10T12:31:56.596Z,24.98
2019-04-10T12:34:01.425Z,21.10
2019-04-10T12:36:10.158Z,21.40
2019-04-10T12:38:15.025Z,18.82
2019-04-10T12:40:19.509Z,19.15
2019-04-10T12:42:23.914Z,18.30
2019-04-10T12:44:27.874Z,20.55
2019-04-10T12:46:31.743Z,25.68
2019-04-10T12:48:36.812Z,20.90
2019-04-10T12:50:41.277Z,17.85
2019-04-10T12:52:45.215Z,18.27
2019-04-10T12:54:49.157Z,19.05
2019-04-10T12:56:53.094Z,21.15
2019-04-10T12:58:57.197Z,21.10
2019-04-10T13:01:01.138Z,19.30
2019-04-10T13:03:05.265Z,21.05
2019-04-10T13:05:09.391Z,21.85
2019-04-10T13:07:13.688Z,22.15
2019-04-10T13:09:17.945Z,22.10
2019-04-10T13:11:22.560Z,18.25
2019-04-10T13:13:27.578Z,18.30
2019-04-10T13:15:32.014Z,26.50
2019-04-10T13:17:35.851Z,20.08
2019-04-10T13:19:40.883Z,23.55
2019-04-10T13:21:44.872Z,23.07
2019-04-10T13:23:48.972Z,20.15
2019-04-10T13:25:58.189Z,23.45
2019-04-10T13:27:59.048Z,19.77
2019-04-10T13:30:03.409Z,22.87
2019-04-10T13:32:07.660Z,18.15
2019-04-10T13:34:11.741Z,18.42
2019-04-10T13:36:15.603Z,19.77
2019-04-10T13:38:26.660Z,19.80
2019-04-10T13:40:25.756Z,17.73
2019-04-10T13:42:30.330Z,19.52
2019-04-10T13:44:34.885Z,23.00
2019-04-10T13:46:39.214Z,22.85
2019-04-10T13:48:43.686Z,21.00
2019-04-10T13:50:48.656Z,18.55
2019-04-10T13:52:55.555Z,19.73
2019-04-10T13:54:59.737Z,24.27
2019-04-10T13:57:05.650Z,15.45
2019-04-10T13:59:10.945Z,18.92
2019-04-10T14:01:17.479Z,22.77
2019-04-10T14:03:22.574Z,16.35
2019-04-10T14:05:27.590Z,22.40
2019-04-10T14:07:32.077Z,20.85
2019-04-10T14:09:43.981Z,21.60
2019-04-10T14:11:45.686Z,22.58
2019-04-10T14:13:49.840Z,23.90
2019-04-10T14:15:54.208Z,23.27
2019-04-10T14:17:58.278Z,20.97
2019-04-10T14:20:02.878Z,27.87
2019-04-10T14:22:07.198Z,22.50
2019-04-10T14:24:12.565Z,24.12
2019-04-10T14:26:40.817Z,21.95
2019-04-10T14:28:35.346Z,19.57
2019-04-10T14:30:41.580Z,24.52
2019-04-10T14:32:45.724Z,27.90
2019-04-10T14:34:50.473Z,26.12
2019-04-10T14:36:54.789Z,23.62
2019-04-10T14:39:10.301Z,20.40
2019-04-10T14:41:05.316Z,23.00
2019-04-10T14:43:09.551Z,21.52
2019-04-10T14:45:14.119Z,19.55
2019-04-10T14:47:19.138Z,21.10
2019-04-10T14:49:23.313Z,26.25
2019-04-10T14:51:28.191Z,23.07
2019-04-10T14:53:33.123Z,22.35
2019-04-10T14:55:37.709Z,25.77
2019-04-10T14:57:41.799Z,21.45
2019-04-10T14:59:46.380Z,21.90
2019-04-10T15:01:51.202Z,24.23
2019-04-10T15:03:56.756Z,19.77
2019-04-10T15:06:02.579Z,23.32
2019-04-10T15:08:07.143Z,18.60
2019-04-10T15:10:11.292Z,20.48
2019-04-10T15:12:16.336Z,18.05
2019-04-10T15:14:21.507Z,23.40
2019-04-10T15:16:25.635Z,20.12
2019-04-10T15:18:29.543Z,21.85
2019-04-10T15:20:33.512Z,20.40
2019-04-10T15:22:37.894Z,33.92
2019-04-10T15:24:42.730Z,21.95
2019-04-10T15:26:46.686Z,31.60
2019-04-10T15:28:50.504Z,38.15
2019-04-10T15:30:55.066Z,21.70
2019-04-10T15:32:59.057Z,21.62
2019-04-10T15:35:04.085Z,26.23
2019-04-10T15:37:08.884Z,30.25
2019-04-10T15:39:13.040Z,20.95
2019-04-10T15:41:16.988Z,24.57
2019-04-10T15:43:22.486Z,25.65
2019-04-10T15:45:26.479Z,19.23
2019-04-10T15:47:31.276Z,20.85
2019-04-10T15:49:35.303Z,24.57
2019-04-10T15:51:39.326Z,22.13
2019-04-10T15:53:43.224Z,25.02
2019-04-10T15:55:47.566Z,19.00
2019-04-10T15:57:55.289Z,19.48
2019-04-10T15:59:57.146Z,19.32
2019-04-10T16:02:01.524Z,22.20
2019-04-10T16:04:05.512Z,22.27
2019-04-10T16:06:09.441Z,21.05
2019-04-10T16:08:14.243Z,19.17
2019-04-10T16:10:21.015Z,19.65
2019-04-10T16:12:25.072Z,20.52
2019-04-10T16:14:30.336Z,22.60
2019-04-10T16:16:36.935Z,18.57
2019-04-10T16:18:55.159Z,19.30
2019-04-10T16:20:59.985Z,21.37
2019-04-10T16:23:12.246Z,21.75
2019-04-10T16:25:18.039Z,23.80
2019-04-10T16:27:22.186Z,18.65
2019-04-10T16:29:26.761Z,22.62
2019-04-10T16:31:30.596Z,19.25
2019-04-10T16:33:35.649Z,20.45
2019-04-10T16:35:40.061Z,20.72
2019-04-10T16:37:44.052Z,22.70
2019-04-10T16:39:57.786Z,24.18
2019-04-10T16:41:54.437Z,22.93
2019-04-10T16:43:58.570Z,21.90
2019-04-10T16:46:02.830Z,20.88
2019-04-10T16:48:06.818Z,21.73
2019-04-10T16:50:11.212Z,21.55
2019-04-10T16:52:15.195Z,25.60
2019-04-10T16:54:20.481Z,22.85
2019-04-10T16:56:25.465Z,27.87
2019-04-10T16:58:29.395Z,24.57
2019-04-10T17:00:33.426Z,21.12
2019-04-10T17:02:37.383Z,23.85
2019-04-10T17:04:41.724Z,26.90
2019-04-10T17:06:46.365Z,23.85
2019-04-10T17:08:50.362Z,22.40
2019-04-10T17:10:54.301Z,25.30
2019-04-10T17:12:58.486Z,22.30
2019-04-10T17:15:02.371Z,23.45
2019-04-10T17:17:06.292Z,34.40
2019-04-10T17:19:13.897Z,29.77
2019-04-10T17:21:18.544Z,33.30
2019-04-10T17:23:23.272Z,28.60
2019-04-10T17:25:28.362Z,27.77
2019-04-10T17:27:32.399Z,33.20
2019-04-10T17:29:36.880Z,30.23
2019-04-10T17:31:42.868Z,31.62
2019-04-10T17:33:46.438Z,29.48
2019-04-10T17:35:51.815Z,58.58
2019-04-10T17:37:56.182Z,63.73
2019-04-10T17:40:00.151Z,133.85
2019-04-10T17:42:04.171Z,124.42
2019-04-10T17:44:08.078Z,59.90
2019-04-10T17:46:13.142Z,69.70
2019-04-10T17:48:17.805Z,40.12
2019-04-10T17:50:22.530Z,37.33
2019-04-10T17:52:27.124Z,35.10
2019-04-10T17:54:31.395Z,37.55
2019-04-10T17:56:36.049Z,36.45
2019-04-10T17:58:40.108Z,37.10
2019-04-10T18:00:47.259Z,42.05
2019-04-10T18:02:51.229Z,34.85
2019-04-10T18:04:56.034Z,39.78
2019-04-10T18:07:00.086Z,34.63
2019-04-10T18:09:06.091Z,33.00
2019-04-10T18:11:09.998Z,35.68
2019-04-10T18:13:13.924Z,31.12
2019-04-10T18:15:17.748Z,32.75
2019-04-10T18:17:22.692Z,30.43
2019-04-10T18:19:27.457Z,32.70
2019-04-10T18:21:31.413Z,35.00
2019-04-10T18:23:35.621Z,35.70
2019-04-10T18:25:40.181Z,36.80
2019-04-10T18:27:44.873Z,34.05
2019-04-10T18:29:49.622Z,34.10
2019-04-10T18:31:53.613Z,34.03
2019-04-10T18:33:58.652Z,32.60
2019-04-10T18:36:03.018Z,37.38
2019-04-10T18:38:07.196Z,29.50
2019-04-10T18:40:12.564Z,31.77
2019-04-10T18:42:17.357Z,35.05
2019-04-10T18:44:21.277Z,32.98
2019-04-10T18:46:25.152Z,33.33
2019-04-10T18:48:29.115Z,32.88
2019-04-10T18:50:34.033Z,28.30
2019-04-10T18:52:39.245Z,29.18
2019-04-10T18:54:43.596Z,33.90
2019-04-10T18:56:47.673Z,35.45
2019-04-10T18:59:05.166Z,41.40
2019-04-10T19:01:19.712Z,39.23
2019-04-10T19:03:48.660Z,35.10
2019-04-10T19:07:58.707Z,35.98
2019-04-10T19:10:04.213Z,36.30
2019-04-10T19:12:08.646Z,35.92
2019-04-10T19:14:12.678Z,33.90
2019-04-10T19:16:17.370Z,34.15
2019-04-10T19:18:21.875Z,32.35
2019-04-10T19:20:26.761Z,34.05
2019-04-10T19:22:30.762Z,33.48
2019-04-10T19:24:34.647Z,35.90
2019-04-10T19:26:39.793Z,29.40
2019-04-10T19:28:45.085Z,33.15
2019-04-10T19:30:51.191Z,76.02
2019-04-10T19:32:55.266Z,33.13
2019-04-10T19:34:59.233Z,30.97
2019-04-10T19:37:04.064Z,93.82
2019-04-10T19:39:09.737Z,62.85
2019-04-10T19:41:21.211Z,34.50
2019-04-10T19:43:19.191Z,41.88
2019-04-10T19:45:23.759Z,28.75
2019-04-10T19:47:28.443Z,28.17
2019-04-10T19:49:32.929Z,30.80
2019-04-10T19:51:36.795Z,32.80
2019-04-10T19:53:41.538Z,40.83
2019-04-10T19:55:46.241Z,104.78
2019-04-10T19:57:50.335Z,37.50
2019-04-10T19:59:54.229Z,56.73
2019-04-10T20:01:58.273Z,27.52
2019-04-10T20:04:02.160Z,27.37
2019-04-10T20:06:06.089Z,25.57
2019-04-10T20:08:12.622Z,26.00
2019-04-10T20:10:15.729Z,34.85
2019-04-10T20:12:20.258Z,62.53
2019-04-10T20:14:24.269Z,35.52
2019-04-10T20:16:28.135Z,28.45
2019-04-10T20:18:32.809Z,28.15
2019-04-10T20:20:37.472Z,28.05
2019-04-10T20:22:41.857Z,31.40
2019-04-10T20:24:45.791Z,32.00
2019-04-10T20:26:49.673Z,29.23
2019-04-10T20:28:54.679Z,33.30
2019-04-10T20:30:59.509Z,29.07
2019-04-10T20:33:03.590Z,31.37
2019-04-10T20:35:09.823Z,26.75
2019-04-10T20:37:14.495Z,29.63
2019-04-10T20:39:18.483Z,29.20
2019-04-10T20:41:22.498Z,37.03
2019-04-10T20:43:28.913Z,30.50
2019-04-10T20:45:31.898Z,34.15
2019-04-10T20:47:35.818Z,32.90
2019-04-10T20:49:40.545Z,28.38
2019-04-10T20:51:44.483Z,29.80
2019-04-10T20:53:48.559Z,28.40
2019-04-10T20:55:52.547Z,31.07
2019-04-10T20:57:56.389Z,28.65
2019-04-10T21:00:01.537Z,31.35
2019-04-10T21:02:06.276Z,28.52
2019-04-10T21:04:10.323Z,37.35
2019-04-10T21:06:14.148Z,31.90
2019-04-10T21:08:17.993Z,48.15
2019-04-10T21:10:21.994Z,27.73
2019-04-10T21:12:25.896Z,69.07
2019-04-10T21:14:29.730Z,90.72
2019-04-10T21:16:33.688Z,25.08
2019-04-10T21:18:37.754Z,30.72
2019-04-10T21:20:43.103Z,30.17
2019-04-10T21:22:47.311Z,24.92
2019-04-10T21:24:52.087Z,34.58
2019-04-10T21:26:56.899Z,27.00
2019-04-10T21:29:01.007Z,26.80
2019-04-10T21:31:07.411Z,26.87
2019-04-10T21:33:25.007Z,28.55
2019-04-10T21:35:30.456Z,28.27
2019-04-10T21:37:34.675Z,26.17
2019-04-10T21:39:38.695Z,27.42
2019-04-10T21:41:42.582Z,26.07
2019-04-10T21:43:47.353Z,26.35
2019-04-10T21:45:51.791Z,27.70
2019-04-10T21:47:55.907Z,25.68
2019-04-10T21:50:00.399Z,25.52
2019-04-10T21:52:05.589Z,29.15
2019-04-10T21:54:09.832Z,25.92
2019-04-10T21:56:13.926Z,26.70
2019-04-10T21:58:17.765Z,28.20
2019-04-10T22:00:24.079Z,31.80
2019-04-10T22:02:27.973Z,31.65
2019-04-10T22:04:32.894Z,25.50
2019-04-10T22:06:39.793Z,25.35
2019-04-10T22:08:45.682Z,26.35
2019-04-10T22:10:50.362Z,25.60
2019-04-10T22:12:55.310Z,23.47
2019-04-10T22:15:00.293Z,25.82
2019-04-10T22:17:05.229Z,30.70
2019-04-10T22:19:10.062Z,25.27
2019-04-10T22:21:14.510Z,28.70
2019-04-10T22:23:18.548Z,24.52
2019-04-10T22:25:23.484Z,24.18
2019-04-10T22:27:27.586Z,24.10
2019-04-10T22:29:32.639Z,20.72
2019-04-10T22:31:37.715Z,22.60
2019-04-10T22:33:42.584Z,23.35
2019-04-10T22:35:46.650Z,23.00
2019-04-10T22:37:50.523Z,21.90
2019-04-10T22:39:54.594Z,28.23
2019-04-10T22:41:58.947Z,27.02
2019-04-10T22:44:03.338Z,22.90
2019-04-10T22:46:07.457Z,22.35
2019-04-10T22:48:12.356Z,30.25
2019-04-10T22:50:16.367Z,20.88
2019-04-10T22:52:20.251Z,21.95
2019-04-10T22:54:24.144Z,22.62
2019-04-10T22:56:28.035Z,21.68
2019-04-10T22:58:32.949Z,20.62
2019-04-10T23:00:37.638Z,21.90
2019-04-10T23:02:41.746Z,21.07
2019-04-10T23:04:45.590Z,25.52
2019-04-10T23:06:49.512Z,20.05
2019-04-10T23:08:53.401Z,20.30
2019-04-10T23:10:57.502Z,21.65
2019-04-10T23:13:04.867Z,22.87
2019-04-10T23:15:09.205Z,21.33
2019-04-10T23:17:13.146Z,24.67
2019-04-10T23:19:18.148Z,22.05
2019-04-10T23:21:22.797Z,21.23
2019-04-10T23:23:27.284Z,18.45
2019-04-10T23:25:32.063Z,19.92
2019-04-10T23:27:36.003Z,21.97
2019-04-10T23:29:41.308Z,20.70
2019-04-10T23:31:45.847Z,21.60
2019-04-10T23:33:50.359Z,17.92
2019-04-10T23:35:54.318Z,22.67
2019-04-10T23:37:59.377Z,24.87
2019-04-10T23:40:03.368Z,19.10
2019-04-10T23:42:07.553Z,21.80
2019-04-10T23:44:11.683Z,21.37
2019-04-10T23:46:15.603Z,21.93
2019-04-10T23:48:20.368Z,22.67
2019-04-10T23:50:24.315Z,18.80
2019-04-10T23:52:28.200Z,20.82
2019-04-10T23:54:32.014Z,23.95
2019-04-10T23:56:36.143Z,17.27
2019-04-10T23:58:40.227Z,20.70
